createdAt,value
2023-03-28T00:01:40.583Z,2.98
2023-03-28T00:04:07.410Z,2.89
2023-03-28T00:06:34.211Z,2.93
2023-03-28T00:09:00.915Z,2.95
2023-03-28T00:11:27.478Z,2.94
2023-03-28T00:13:59.087Z,3.00
2023-03-28T00:16:46.559Z,2.99
2023-03-28T00:19:16.316Z,2.97
2023-03-28T00:21:48.412Z,3.01
2023-03-28T00:24:17.784Z,3.02
2023-03-28T00:26:45.731Z,3.04
2023-03-28T00:29:17.458Z,3.01
2023-03-28T00:31:44.404Z,3.04
2023-03-28T00:34:11.028Z,2.93
2023-03-28T00:36:37.599Z,3.02
2023-03-28T00:39:04.833Z,2.98
2023-03-28T00:41:34.823Z,2.99
2023-03-28T00:44:02.980Z,2.99
2023-03-28T00:46:36.674Z,3.03
2023-03-28T00:49:11.358Z,3.05
2023-03-28T00:51:42.061Z,2.99
2023-03-28T00:54:12.773Z,3.00
2023-03-28T00:56:42.871Z,2.98
2023-03-28T00:59:14.423Z,3.03
2023-03-28T01:01:41.211Z,2.94
2023-03-28T01:04:08.588Z,2.96
2023-03-28T01:06:40.270Z,2.93
2023-03-28T01:09:08.768Z,2.99
2023-03-28T01:11:38.038Z,2.97
2023-03-28T01:14:06.359Z,3.02
2023-03-28T01:16:34.232Z,3.03
2023-03-28T01:19:04.663Z,2.98
2023-03-28T01:21:49.792Z,2.91
2023-03-28T01:24:31.272Z,2.92
2023-03-28T01:27:16.199Z,2.85
2023-03-28T01:30:07.012Z,2.84
2023-03-28T01:33:07.853Z,2.92
2023-03-28T01:36:02.299Z,2.93
2023-03-28T01:38:43.080Z,2.85
2023-03-28T01:41:23.047Z,2.90
2023-03-28T01:44:10.164Z,2.89
2023-03-28T01:46:59.193Z,2.89
2023-03-28T01:49:45.548Z,2.84
2023-03-28T01:52:36.923Z,2.78
2023-03-28T01:55:24.242Z,2.78
2023-03-28T01:58:05.260Z,2.79
2023-03-28T02:00:41.131Z,2.70
2023-03-28T02:03:27.205Z,2.82
2023-03-28T02:05:57.053Z,2.83
2023-03-28T02:08:28.464Z,2.77
2023-03-28T02:10:56.356Z,2.84
2023-03-28T02:13:30.212Z,2.89
2023-03-28T02:16:01.268Z,2.88
2023-03-28T02:18:39.864Z,2.91
2023-03-28T02:21:16.824Z,2.95
2023-03-28T02:23:48.629Z,2.94
2023-03-28T02:26:15.493Z,2.99
2023-03-28T02:28:44.094Z,3.02
2023-03-28T02:31:11.474Z,3.04
2023-03-28T02:33:41.631Z,3.01
2023-03-28T02:36:26.798Z,2.98
2023-03-28T02:39:27.749Z,2.99
2023-03-28T02:42:12.716Z,2.95
2023-03-28T02:44:51.804Z,2.97
2023-03-28T02:47:38.884Z,2.92
2023-03-28T02:50:27.381Z,2.87
2023-03-28T02:53:04.128Z,2.83
2023-03-28T02:55:45.365Z,2.73
2023-03-28T02:58:14.692Z,2.66
2023-03-28T03:00:41.340Z,2.61
2023-03-28T03:03:09.451Z,2.51
2023-03-28T03:05:36.487Z,2.46
2023-03-28T03:08:03.577Z,2.38
2023-03-28T03:10:30.252Z,2.41
2023-03-28T03:12:56.761Z,2.32
2023-03-28T03:15:23.255Z,2.27
2023-03-28T03:17:49.937Z,2.26
2023-03-28T03:20:16.592Z,2.19
2023-03-28T03:22:43.272Z,2.22
2023-03-28T03:25:11.489Z,2.18
2023-03-28T03:27:39.674Z,2.12
2023-03-28T03:30:07.017Z,2.11
2023-03-28T03:32:33.770Z,1.99
2023-03-28T03:35:00.669Z,1.96
2023-03-28T03:37:27.467Z,1.96
2023-03-28T03:39:54.350Z,1.88
2023-03-28T03:42:21.560Z,1.90
2023-03-28T03:44:48.168Z,1.85
2023-03-28T03:47:14.756Z,1.78
2023-03-28T03:49:41.647Z,1.79
2023-03-28T03:52:08.259Z,1.78
2023-03-28T03:54:36.219Z,1.75
2023-03-28T03:57:04.657Z,1.71
2023-03-28T03:59:31.408Z,1.67
2023-03-28T04:01:58.117Z,1.64
2023-03-28T04:04:27.483Z,1.68
2023-03-28T04:06:54.186Z,1.66
2023-03-28T04:09:20.779Z,1.68
2023-03-28T04:11:47.433Z,1.65
2023-03-28T04:14:14.010Z,1.61
2023-03-28T04:16:41.668Z,1.56
2023-03-28T04:19:10.769Z,1.56
2023-03-28T04:21:38.306Z,1.55
2023-03-28T04:24:05.457Z,1.50
2023-03-28T04:26:32.029Z,1.52
2023-03-28T04:28:58.737Z,1.51
2023-03-28T04:31:25.489Z,1.51
2023-03-28T04:33:52.062Z,1.48
2023-03-28T04:36:18.711Z,1.46
2023-03-28T04:38:48.345Z,1.47
2023-03-28T04:41:15.261Z,1.48
2023-03-28T04:43:41.870Z,1.46
2023-03-28T04:46:08.607Z,1.44
2023-03-28T04:48:35.235Z,1.42
2023-03-28T04:51:01.828Z,1.54
2023-03-28T04:53:28.362Z,1.49
2023-03-28T04:55:55.034Z,1.52
2023-03-28T04:58:23.448Z,1.58
2023-03-28T05:00:50.102Z,1.84
2023-03-28T05:03:19.592Z,2.15
2023-03-28T05:05:51.757Z,2.37
2023-03-28T05:08:21.454Z,2.60
2023-03-28T05:10:49.076Z,2.89
2023-03-28T05:13:15.970Z,3.23
2023-03-28T05:15:43.974Z,3.53
2023-03-28T05:18:10.656Z,3.71
2023-03-28T05:20:37.433Z,4.01
2023-03-28T05:23:04.965Z,4.25
2023-03-28T05:25:32.015Z,4.55
2023-03-28T05:27:58.891Z,4.84
2023-03-28T05:30:25.459Z,4.91
2023-03-28T05:32:52.185Z,5.36
2023-03-28T05:35:19.123Z,5.48
2023-03-28T05:37:47.049Z,5.86
2023-03-28T05:40:15.198Z,6.24
2023-03-28T05:42:41.844Z,6.60
2023-03-28T05:45:11.312Z,6.91
2023-03-28T05:47:37.976Z,7.19
2023-03-28T05:50:09.078Z,7.49
2023-03-28T05:52:35.754Z,7.55
2023-03-28T05:55:03.537Z,7.50
2023-03-28T05:57:30.296Z,7.58
2023-03-28T05:59:57.024Z,7.87
2023-03-28T06:02:24.720Z,8.33
2023-03-28T06:04:53.121Z,8.59
2023-03-28T06:07:25.494Z,8.68
2023-03-28T06:10:02.736Z,8.63
2023-03-28T06:12:29.347Z,8.92
2023-03-28T06:14:56.155Z,9.09
2023-03-28T06:17:23.277Z,9.11
2023-03-28T06:19:50.087Z,9.42
2023-03-28T06:22:16.850Z,9.61
2023-03-28T06:24:43.484Z,9.85
2023-03-28T06:27:10.080Z,10.27
2023-03-28T06:29:36.874Z,10.32
2023-03-28T06:32:03.825Z,10.29
2023-03-28T06:34:30.495Z,10.61
2023-03-28T06:36:59.898Z,10.67
2023-03-28T06:39:26.602Z,10.36
2023-03-28T06:41:53.331Z,10.63
2023-03-28T06:44:22.793Z,10.63
2023-03-28T06:46:54.449Z,10.51
2023-03-28T06:49:21.082Z,10.30
2023-03-28T06:51:47.861Z,10.94
2023-03-28T06:54:23.537Z,11.60
2023-03-28T06:56:50.134Z,11.63
2023-03-28T06:59:16.790Z,12.40
2023-03-28T07:01:45.649Z,12.60
2023-03-28T07:04:12.731Z,12.90
2023-03-28T07:06:39.305Z,12.96
2023-03-28T07:09:06.761Z,12.99
2023-03-28T07:11:33.715Z,13.21
2023-03-28T07:14:00.337Z,13.57
2023-03-28T07:16:26.954Z,13.78
2023-03-28T07:18:53.632Z,14.12
2023-03-28T07:21:20.322Z,13.99
2023-03-28T07:23:51.147Z,14.21
2023-03-28T07:26:18.057Z,13.94
2023-03-28T07:28:44.705Z,13.82
2023-03-28T07:31:11.358Z,13.91
2023-03-28T07:33:38.504Z,12.86
2023-03-28T07:36:14.728Z,12.93
2023-03-28T07:38:41.590Z,13.39
2023-03-28T07:41:08.515Z,13.55
2023-03-28T07:43:36.929Z,13.51
2023-03-28T07:46:05.798Z,13.28
2023-03-28T07:48:33.189Z,13.99
2023-03-28T07:51:00.009Z,13.73
2023-03-28T07:53:30.130Z,14.04
2023-03-28T07:58:37.694Z,13.82
2023-03-28T08:01:09.925Z,13.84
2023-03-28T08:03:38.671Z,14.65
2023-03-28T08:06:13.827Z,14.55
2023-03-28T08:08:51.487Z,15.39
2023-03-28T08:11:18.106Z,15.64
2023-03-28T08:13:44.700Z,15.97
2023-03-28T08:16:11.417Z,14.92
2023-03-28T08:18:38.024Z,14.78
2023-03-28T08:21:07.754Z,14.27
2023-03-28T08:23:34.378Z,14.25
2023-03-28T08:26:05.654Z,14.27
2023-03-28T08:28:33.490Z,13.95
2023-03-28T08:31:00.941Z,13.85
2023-03-28T08:33:28.268Z,13.49
2023-03-28T08:35:55.399Z,13.54
2023-03-28T08:38:24.942Z,14.58
2023-03-28T08:41:03.320Z,15.67
2023-03-28T08:43:45.096Z,15.74
2023-03-28T08:46:16.265Z,16.01
2023-03-28T08:48:48.284Z,16.23
2023-03-28T08:51:37.042Z,15.49
2023-03-28T08:54:32.483Z,15.48
2023-03-28T08:57:03.749Z,15.30
2023-03-28T08:59:33.546Z,15.28
2023-03-28T09:02:00.269Z,14.45
2023-03-28T09:04:39.087Z,14.44
2023-03-28T09:07:42.702Z,14.84
2023-03-28T09:10:39.621Z,16.71
2023-03-28T09:13:09.043Z,18.06
2023-03-28T09:16:00.276Z,18.12
2023-03-28T09:18:53.609Z,19.09
2023-03-28T09:21:52.830Z,20.97
2023-03-28T09:24:32.190Z,22.48
2023-03-28T09:27:17.554Z,22.35
2023-03-28T09:29:44.860Z,23.55
2023-03-28T09:32:30.893Z,23.65
2023-03-28T09:34:58.704Z,23.61
2023-03-28T09:37:35.880Z,25.89
2023-03-28T09:40:26.519Z,24.58
2023-03-28T09:43:16.550Z,23.86
2023-03-28T09:45:43.082Z,22.90
2023-03-28T09:48:26.185Z,23.12
2023-03-28T09:50:52.892Z,24.14
2023-03-28T09:53:37.573Z,24.94
2023-03-28T09:56:17.867Z,24.78
2023-03-28T09:58:53.444Z,25.13
2023-03-28T10:01:38.373Z,24.61
2023-03-28T10:04:16.332Z,25.21
2023-03-28T10:06:44.238Z,25.69
2023-03-28T10:09:17.026Z,25.53
2023-03-28T10:11:47.792Z,24.80
2023-03-28T10:14:40.945Z,24.14
2023-03-28T10:17:12.419Z,23.61
2023-03-28T10:19:43.080Z,19.84
2023-03-28T10:22:17.348Z,20.35
2023-03-28T10:24:47.406Z,22.61
2023-03-28T10:27:16.248Z,20.40
2023-03-28T10:29:44.300Z,17.58
2023-03-28T10:32:26.790Z,18.58
2023-03-28T10:35:27.086Z,20.79
2023-03-28T10:37:57.055Z,20.82
2023-03-28T10:40:28.048Z,23.73
2023-03-28T10:42:59.226Z,24.22
2023-03-28T10:45:37.825Z,23.26
2023-03-28T10:48:10.150Z,22.27
2023-03-28T10:50:44.863Z,21.26
2023-03-28T10:53:29.359Z,22.11
2023-03-28T10:56:01.775Z,18.43
2023-03-28T10:58:35.744Z,17.10
2023-03-28T11:01:30.174Z,19.79
2023-03-28T11:04:04.551Z,21.91
2023-03-28T11:06:43.412Z,23.09
2023-03-28T11:09:47.248Z,23.73
2023-03-28T11:12:54.277Z,23.99
2023-03-28T11:15:42.104Z,26.27
2023-03-28T11:18:47.319Z,23.87
2023-03-28T11:21:37.009Z,18.34
2023-03-28T11:24:54.845Z,16.69
2023-03-28T11:27:48.787Z,15.17
2023-03-28T11:30:20.046Z,13.86
2023-03-28T11:33:00.507Z,12.74
2023-03-28T11:35:49.688Z,11.99
2023-03-28T11:38:38.051Z,11.10
2023-03-28T11:41:12.558Z,10.32
2023-03-28T11:43:54.796Z,9.34
2023-03-28T11:46:28.328Z,8.78
2023-03-28T11:49:26.748Z,8.75
2023-03-28T11:55:15.203Z,8.75
2023-03-28T11:58:00.119Z,8.78
2023-03-28T12:00:44.859Z,9.10
2023-03-28T12:03:33.638Z,9.55
2023-03-28T12:06:15.288Z,10.07
2023-03-28T12:08:51.088Z,8.99
2023-03-28T12:11:28.522Z,8.74
2023-03-28T12:14:26.204Z,8.52
2023-03-28T12:17:25.662Z,8.36
2023-03-28T12:19:52.502Z,8.21
2023-03-28T12:22:25.698Z,8.31
2023-03-28T12:25:10.780Z,8.27
2023-03-28T12:27:42.725Z,8.25
2023-03-28T12:30:21.674Z,7.69
2023-03-28T12:33:01.043Z,7.25
2023-03-28T12:35:50.615Z,6.81
2023-03-28T12:38:42.038Z,6.88
2023-03-28T12:41:14.808Z,6.20
2023-03-28T12:44:20.376Z,5.57
2023-03-28T12:46:55.382Z,5.06
2023-03-28T12:49:38.672Z,4.64
2023-03-28T12:52:07.627Z,4.53
2023-03-28T12:54:52.340Z,4.40
2023-03-28T12:57:37.536Z,4.17
2023-03-28T13:00:14.094Z,4.21
2023-03-28T13:02:41.244Z,3.92
2023-03-28T13:05:15.991Z,3.94
2023-03-28T13:07:58.201Z,3.65
2023-03-28T13:10:39.904Z,3.85
2023-03-28T13:13:28.171Z,4.04
2023-03-28T13:16:00.604Z,4.20
2023-03-28T13:18:30.394Z,4.22
2023-03-28T13:21:03.538Z,4.67
2023-03-28T13:23:36.448Z,4.88
2023-03-28T13:26:06.321Z,5.01
2023-03-28T13:28:35.949Z,5.41
2023-03-28T13:31:15.988Z,5.65
2023-03-28T13:33:47.582Z,5.68
2023-03-28T13:36:20.284Z,5.49
2023-03-28T13:39:05.237Z,5.28
2023-03-28T13:41:42.846Z,5.05
2023-03-28T13:44:13.681Z,5.31
2023-03-28T13:46:45.840Z,5.47
2023-03-28T13:49:30.636Z,5.56
2023-03-28T13:51:59.281Z,5.39
2023-03-28T13:54:26.388Z,5.30
2023-03-28T13:56:53.529Z,5.14
2023-03-28T13:59:26.330Z,4.70
2023-03-28T14:01:55.585Z,4.64
2023-03-28T14:04:28.893Z,4.67
2023-03-28T14:06:55.950Z,4.53
2023-03-28T14:09:32.437Z,4.60
2023-03-28T14:12:06.277Z,4.56
2023-03-28T14:14:37.287Z,4.61
2023-03-28T14:17:07.715Z,4.77
2023-03-28T14:19:46.158Z,4.92
2023-03-28T14:22:20.911Z,4.72
2023-03-28T14:24:51.750Z,4.58
2023-03-28T14:27:51.741Z,4.66
2023-03-28T14:30:41.944Z,4.60
2023-03-28T14:33:14.133Z,4.70
2023-03-28T14:35:41.557Z,4.56
2023-03-28T14:38:13.312Z,4.46
2023-03-28T14:40:42.380Z,4.74
2023-03-28T14:43:11.817Z,5.05
2023-03-28T14:45:42.374Z,5.32
2023-03-28T14:48:14.311Z,5.60
2023-03-28T14:50:42.284Z,5.54
2023-03-28T14:53:17.646Z,5.25
2023-03-28T14:55:44.377Z,5.46
2023-03-28T14:58:13.738Z,5.57
2023-03-28T15:00:42.654Z,5.47
2023-03-28T15:03:36.362Z,5.81
2023-03-28T15:06:03.527Z,6.08
2023-03-28T15:08:37.823Z,6.01
2023-03-28T15:11:32.634Z,6.20
2023-03-28T15:14:17.505Z,6.18
2023-03-28T15:16:46.872Z,6.30
2023-03-28T15:19:40.273Z,6.30
2023-03-28T15:22:28.992Z,6.22
2023-03-28T15:25:01.441Z,6.31
2023-03-28T15:27:31.996Z,6.31
2023-03-28T15:30:05.961Z,6.30
2023-03-28T15:32:33.443Z,5.82
2023-03-28T15:35:02.139Z,4.92
2023-03-28T15:37:28.825Z,4.30
2023-03-28T15:40:16.875Z,3.87
2023-03-28T15:42:48.714Z,3.56
2023-03-28T15:45:21.303Z,3.79
2023-03-28T15:47:54.309Z,3.79
2023-03-28T15:50:42.652Z,4.03
2023-03-28T15:53:14.917Z,4.04
2023-03-28T15:55:43.362Z,4.13
2023-03-28T15:58:14.342Z,4.30
2023-03-28T16:00:42.966Z,4.34
2023-03-28T16:03:21.828Z,4.45
2023-03-28T16:06:09.836Z,4.45
2023-03-28T16:08:41.665Z,4.64
2023-03-28T16:11:21.195Z,4.58
2023-03-28T16:13:49.161Z,4.55
2023-03-28T16:16:23.705Z,4.56
2023-03-28T16:18:50.692Z,4.56
2023-03-28T16:21:17.840Z,4.63
2023-03-28T16:23:44.602Z,4.71
2023-03-28T16:26:12.010Z,4.83
2023-03-28T16:28:38.807Z,4.92
2023-03-28T16:31:05.748Z,4.97
2023-03-28T16:33:32.549Z,4.95
2023-03-28T16:35:59.602Z,4.92
2023-03-28T16:38:26.430Z,4.99
2023-03-28T16:40:53.000Z,4.93
2023-03-28T16:43:19.613Z,4.81
2023-03-28T16:45:50.231Z,4.76
2023-03-28T16:48:17.002Z,4.86
2023-03-28T16:50:53.173Z,4.83
2023-03-28T16:53:19.789Z,4.79
2023-03-28T16:55:46.481Z,4.80
2023-03-28T16:58:13.049Z,4.75
2023-03-28T17:00:39.699Z,4.75
2023-03-28T17:03:06.350Z,4.61
2023-03-28T17:05:36.208Z,4.44
2023-03-28T17:08:02.809Z,4.47
2023-03-28T17:10:29.598Z,4.53
2023-03-28T17:12:56.126Z,4.53
2023-03-28T17:15:22.729Z,4.58
2023-03-28T17:17:49.345Z,4.62
2023-03-28T17:20:16.176Z,4.61
2023-03-28T17:22:42.832Z,4.61
2023-03-28T17:25:09.648Z,4.43
2023-03-28T17:27:36.355Z,4.49
2023-03-28T17:30:03.526Z,4.49
2023-03-28T17:32:30.439Z,4.50
2023-03-28T17:34:57.160Z,4.53
2023-03-28T17:37:23.846Z,4.57
2023-03-28T17:39:50.670Z,4.60
2023-03-28T17:42:17.355Z,4.55
2023-03-28T17:44:43.889Z,4.60
2023-03-28T17:47:10.472Z,4.59
2023-03-28T17:49:37.050Z,4.64
2023-03-28T17:52:03.711Z,4.57
2023-03-28T17:54:30.494Z,4.49
2023-03-28T17:56:57.249Z,4.34
2023-03-28T17:59:23.977Z,4.29
2023-03-28T18:01:50.559Z,4.29
2023-03-28T18:04:17.279Z,4.22
2023-03-28T18:06:44.151Z,4.24
2023-03-28T18:09:10.806Z,4.20
2023-03-28T18:11:37.357Z,4.25
2023-03-28T18:14:03.976Z,4.28
2023-03-28T18:16:34.006Z,4.29
2023-03-28T18:19:00.660Z,4.35
2023-03-28T18:21:27.437Z,4.33
2023-03-28T18:23:54.057Z,4.26
2023-03-28T18:26:25.785Z,4.24
2023-03-28T18:28:52.311Z,4.26
2023-03-28T18:31:18.957Z,4.20
2023-03-28T18:33:45.588Z,4.25
2023-03-28T18:36:13.636Z,4.20
2023-03-28T18:38:42.551Z,4.19
2023-03-28T18:41:10.392Z,4.21
2023-03-28T18:43:38.163Z,4.31
2023-03-28T18:46:06.300Z,4.30
2023-03-28T18:48:33.783Z,4.26
2023-03-28T18:51:01.002Z,4.34
2023-03-28T18:53:27.683Z,4.27
2023-03-28T18:55:54.842Z,4.20
2023-03-28T18:58:21.925Z,4.11
2023-03-28T19:00:56.597Z,4.16
2023-03-28T19:03:23.515Z,3.98
2023-03-28T19:05:54.911Z,3.86
2023-03-28T19:08:21.509Z,3.79
2023-03-28T19:10:48.174Z,3.85
2023-03-28T19:13:14.932Z,3.78
2023-03-28T19:15:44.464Z,3.71
2023-03-28T19:18:11.089Z,3.77
2023-03-28T19:20:37.851Z,3.73
2023-03-28T19:23:04.758Z,3.69
2023-03-28T19:25:31.282Z,3.70
2023-03-28T19:27:57.950Z,3.64
2023-03-28T19:30:24.516Z,3.63
2023-03-28T19:32:51.157Z,3.65
2023-03-28T19:35:17.826Z,3.71
2023-03-28T19:37:44.404Z,3.70
2023-03-28T19:40:11.348Z,3.73
2023-03-28T19:42:37.937Z,3.70
2023-03-28T19:45:05.314Z,3.72
2023-03-28T19:47:31.858Z,3.70
2023-03-28T19:49:58.514Z,3.64
2023-03-28T19:52:25.209Z,3.65
2023-03-28T19:54:51.774Z,3.62
2023-03-28T19:57:18.365Z,3.60
2023-03-28T19:59:44.927Z,3.66
2023-03-28T20:02:11.629Z,3.65
2023-03-28T20:04:38.333Z,3.63
2023-03-28T20:07:05.265Z,3.56
2023-03-28T20:09:34.308Z,3.58
2023-03-28T20:12:02.052Z,3.60
2023-03-28T20:14:28.677Z,3.46
2023-03-28T20:16:55.309Z,3.46
2023-03-28T20:19:21.961Z,3.32
2023-03-28T20:21:48.566Z,3.30
2023-03-28T20:24:15.235Z,3.29
2023-03-28T20:26:41.789Z,3.22
2023-03-28T20:29:11.113Z,3.20
2023-03-28T20:31:37.815Z,3.13
2023-03-28T20:34:04.465Z,3.17
2023-03-28T20:36:31.035Z,3.10
2023-03-28T20:38:57.588Z,3.13
2023-03-28T20:41:24.193Z,3.07
2023-03-28T20:43:50.786Z,2.96
2023-03-28T20:46:18.679Z,2.96
2023-03-28T20:48:48.531Z,2.87
2023-03-28T20:51:16.164Z,2.85
2023-03-28T20:54:02.067Z,2.86
2023-03-28T20:56:30.755Z,2.85
2023-03-28T20:58:58.674Z,2.80
2023-03-28T21:01:27.329Z,2.78
2023-03-28T21:03:56.029Z,2.81
2023-03-28T21:06:25.713Z,2.76
2023-03-28T21:08:57.421Z,2.74
2023-03-28T21:11:26.190Z,2.73
2023-03-28T21:13:52.900Z,2.70
2023-03-28T21:16:22.192Z,2.68
2023-03-28T21:18:49.346Z,2.67
2023-03-28T21:21:18.337Z,2.57
2023-03-28T21:23:45.720Z,2.40
2023-03-28T21:26:15.267Z,2.46
2023-03-28T21:28:42.212Z,2.46
2023-03-28T21:31:12.206Z,2.46
2023-03-28T21:33:38.945Z,2.51
2023-03-28T21:36:07.208Z,2.56
2023-03-28T21:38:34.962Z,2.54
2023-03-28T21:41:01.858Z,2.55
2023-03-28T21:43:28.672Z,2.51
2023-03-28T21:45:55.479Z,2.50
2023-03-28T21:48:23.946Z,2.48
2023-03-28T21:50:52.760Z,2.43
2023-03-28T21:53:20.830Z,2.42
2023-03-28T21:55:47.630Z,2.46
2023-03-28T21:58:16.280Z,2.39
2023-03-28T22:00:44.714Z,2.36
2023-03-28T22:03:11.375Z,2.35
2023-03-28T22:05:44.809Z,2.35
2023-03-28T22:08:13.260Z,2.38
2023-03-28T22:10:48.986Z,2.37
2023-03-28T22:13:16.137Z,2.36
2023-03-28T22:15:43.109Z,2.37
2023-03-28T22:18:09.928Z,2.43
2023-03-28T22:20:38.738Z,2.46
2023-03-28T22:23:06.080Z,2.43
2023-03-28T22:25:35.862Z,2.51
2023-03-28T22:28:08.101Z,2.57
2023-03-28T22:30:35.546Z,2.62
2023-03-28T22:33:02.515Z,2.67
2023-03-28T22:35:29.531Z,2.71
2023-03-28T22:37:56.710Z,2.69
2023-03-28T22:40:23.261Z,2.75
2023-03-28T22:42:49.887Z,2.77
2023-03-28T22:45:16.836Z,2.73
2023-03-28T22:47:43.403Z,2.78
2023-03-28T22:50:11.647Z,2.70
2023-03-28T22:52:38.617Z,2.69
2023-03-28T22:55:06.034Z,2.66
2023-03-28T22:57:32.781Z,2.65
2023-03-28T22:59:59.357Z,2.64
2023-03-28T23:02:25.989Z,2.57
2023-03-28T23:04:52.538Z,2.47
2023-03-28T23:07:19.156Z,2.45
2023-03-28T23:09:45.645Z,2.42
2023-03-28T23:12:12.386Z,2.37
2023-03-28T23:14:39.053Z,2.34
2023-03-28T23:17:05.705Z,2.25
2023-03-28T23:19:32.258Z,2.22
2023-03-28T23:21:59.925Z,2.17
2023-03-28T23:24:26.819Z,2.12
2023-03-28T23:26:54.813Z,2.02
2023-03-28T23:29:21.402Z,1.86
2023-03-28T23:31:48.017Z,1.72
2023-03-28T23:34:14.846Z,1.73
2023-03-28T23:36:41.481Z,1.60
2023-03-28T23:39:09.109Z,1.57
2023-03-28T23:41:35.766Z,1.55
2023-03-28T23:44:02.329Z,1.40
2023-03-28T23:46:28.923Z,1.33
2023-03-28T23:48:55.539Z,1.43
2023-03-28T23:51:22.249Z,1.33
2023-03-28T23:53:48.849Z,1.37
2023-03-28T23:56:15.379Z,1.33
2023-03-28T23:58:42.078Z,1.31
